createdAt,value
2022-12-28T00:01:21.454Z,-1.75
2022-12-28T00:03:48.614Z,-1.76
2022-12-28T00:06:15.444Z,-1.78
2022-12-28T00:08:42.165Z,-1.78
2022-12-28T00:11:20.320Z,-1.75
2022-12-28T00:13:54.684Z,-1.83
2022-12-28T00:16:25.993Z,-1.90
2022-12-28T00:18:53.290Z,-1.89
2022-12-28T00:21:19.854Z,-1.98
2022-12-28T00:23:50.625Z,-2.01
2022-12-28T00:26:17.280Z,-2.01
2022-12-28T00:28:44.052Z,-2.01
2022-12-28T00:31:10.777Z,-1.97
2022-12-28T00:33:37.427Z,-1.97
2022-12-28T00:36:05.081Z,-2.00
2022-12-28T00:38:37.453Z,-1.99
2022-12-28T00:41:06.604Z,-1.91
2022-12-28T00:43:33.548Z,-1.91
2022-12-28T00:46:00.387Z,-1.88
2022-12-28T00:48:27.329Z,-1.88
2022-12-28T00:51:01.857Z,-1.94
2022-12-28T00:53:28.515Z,-2.02
2022-12-28T00:55:55.143Z,-2.03
2022-12-28T00:58:21.741Z,-2.11
2022-12-28T01:00:49.188Z,-2.07
2022-12-28T01:03:16.013Z,-2.11
2022-12-28T01:05:42.599Z,-2.05
2022-12-28T01:08:09.183Z,-2.06
2022-12-28T01:10:38.295Z,-2.11
2022-12-28T01:13:04.931Z,-2.15
2022-12-28T01:15:31.544Z,-2.20
2022-12-28T01:17:58.238Z,-2.21
2022-12-28T01:20:26.736Z,-2.21
2022-12-28T01:22:53.324Z,-2.31
2022-12-28T01:25:22.643Z,-2.37
2022-12-28T01:27:49.322Z,-2.34
2022-12-28T01:30:16.081Z,-2.25
2022-12-28T01:32:42.730Z,-2.18
2022-12-28T01:35:09.561Z,-2.13
2022-12-28T01:37:36.227Z,-2.12
2022-12-28T01:40:03.045Z,-2.09
2022-12-28T01:42:29.601Z,-2.09
2022-12-28T01:44:56.162Z,-2.04
2022-12-28T01:47:27.976Z,-2.01
2022-12-28T01:50:19.776Z,-1.97
2022-12-28T01:52:55.707Z,-1.88
2022-12-28T01:55:27.578Z,-1.82
2022-12-28T01:57:56.276Z,-1.71
2022-12-28T02:00:22.922Z,-1.70
2022-12-28T02:02:55.012Z,-1.74
2022-12-28T02:05:25.862Z,-1.73
2022-12-28T02:07:57.719Z,-1.69
2022-12-28T02:10:44.264Z,-1.62
2022-12-28T02:13:11.132Z,-1.61
2022-12-28T02:15:37.726Z,-1.55
2022-12-28T02:18:04.561Z,-1.57
2022-12-28T02:20:44.407Z,-1.50
2022-12-28T02:23:52.599Z,-1.52
2022-12-28T02:26:43.870Z,-1.53
2022-12-28T02:29:22.643Z,-1.49
2022-12-28T02:32:05.039Z,-1.49
2022-12-28T02:34:37.637Z,-1.45
2022-12-28T02:37:13.225Z,-1.44
2022-12-28T02:39:51.750Z,-1.41
2022-12-28T02:42:20.789Z,-1.43
2022-12-28T02:45:06.725Z,-1.41
2022-12-28T02:47:51.850Z,-1.43
2022-12-28T02:50:19.556Z,-1.48
2022-12-28T02:53:27.232Z,-1.49
2022-12-28T02:56:31.540Z,-1.57
2022-12-28T02:59:15.516Z,-1.52
2022-12-28T03:02:07.450Z,-1.57
2022-12-28T03:04:44.241Z,-1.57
2022-12-28T03:07:58.837Z,-1.52
2022-12-28T03:10:33.857Z,-1.48
2022-12-28T03:13:33.879Z,-1.50
2022-12-28T03:16:06.473Z,-1.52
2022-12-28T03:18:54.013Z,-1.46
2022-12-28T03:21:40.247Z,-1.50
2022-12-28T03:24:30.880Z,-1.43
2022-12-28T03:27:18.564Z,-1.43
2022-12-28T03:30:23.109Z,-1.43
2022-12-28T03:32:50.540Z,-1.46
2022-12-28T03:35:20.798Z,-1.50
2022-12-28T03:37:58.140Z,-1.43
2022-12-28T03:40:40.044Z,-1.16
2022-12-28T03:43:39.801Z,-1.27
2022-12-28T03:46:20.693Z,-1.25
2022-12-28T03:48:49.498Z,-1.21
2022-12-28T03:51:20.404Z,-1.22
2022-12-28T03:53:48.144Z,-1.21
2022-12-28T03:56:21.494Z,-1.21
2022-12-28T03:58:55.775Z,-1.18
2022-12-28T04:01:25.653Z,-1.15
2022-12-28T04:03:53.389Z,-1.11
2022-12-28T04:06:20.539Z,-1.14
2022-12-28T04:08:47.926Z,-1.01
2022-12-28T04:11:14.952Z,-0.96
2022-12-28T04:13:44.978Z,-1.04
2022-12-28T04:16:14.488Z,-1.06
2022-12-28T04:18:43.003Z,-1.11
2022-12-28T04:21:11.826Z,-1.14
2022-12-28T04:23:40.772Z,-0.92
2022-12-28T04:26:19.902Z,-0.60
2022-12-28T04:28:48.656Z,-0.31
2022-12-28T04:31:24.458Z,-0.28
2022-12-28T04:33:58.674Z,-0.38
2022-12-28T04:36:25.923Z,-0.37
2022-12-28T04:38:52.695Z,-0.33
2022-12-28T04:41:19.421Z,-0.14
2022-12-28T04:43:46.027Z,0.05
2022-12-28T04:46:14.919Z,0.21
2022-12-28T04:48:42.066Z,0.33
2022-12-28T04:51:21.103Z,0.49
2022-12-28T04:53:48.024Z,0.64
2022-12-28T04:56:15.817Z,0.78
2022-12-28T04:58:42.962Z,0.89
2022-12-28T05:01:12.815Z,0.83
2022-12-28T05:03:41.859Z,0.66
2022-12-28T05:06:12.541Z,0.49
2022-12-28T05:08:39.666Z,0.46
2022-12-28T05:11:08.933Z,0.56
2022-12-28T05:13:35.528Z,0.64
2022-12-28T05:16:04.163Z,0.60
2022-12-28T05:18:30.969Z,0.52
2022-12-28T05:21:08.685Z,0.48
2022-12-28T05:23:37.516Z,0.59
2022-12-28T05:26:05.215Z,0.79
2022-12-28T05:28:32.084Z,1.10
2022-12-28T05:31:01.184Z,1.35
2022-12-28T05:33:33.275Z,1.48
2022-12-28T05:36:04.768Z,1.64
2022-12-28T05:38:32.563Z,1.55
2022-12-28T05:41:11.155Z,1.57
2022-12-28T05:43:38.291Z,1.56
2022-12-28T05:46:07.419Z,1.64
2022-12-28T05:48:36.209Z,1.71
2022-12-28T05:51:06.277Z,1.79
2022-12-28T05:53:33.203Z,1.78
2022-12-28T05:56:14.246Z,1.83
2022-12-28T05:58:42.530Z,1.88
2022-12-28T06:01:16.313Z,1.99
2022-12-28T06:03:45.189Z,1.98
2022-12-28T06:06:14.193Z,1.99
2022-12-28T06:08:41.813Z,1.93
2022-12-28T06:11:10.983Z,1.96
2022-12-28T06:13:38.489Z,1.92
2022-12-28T06:16:09.620Z,1.88
2022-12-28T06:18:36.587Z,1.98
2022-12-28T06:21:17.326Z,1.98
2022-12-28T06:23:45.136Z,1.98
2022-12-28T06:26:17.133Z,1.96
2022-12-28T06:28:44.179Z,1.90
2022-12-28T06:31:13.475Z,1.77
2022-12-28T06:33:40.483Z,1.74
2022-12-28T06:36:20.676Z,1.75
2022-12-28T06:38:48.897Z,1.75
2022-12-28T06:41:17.413Z,1.77
2022-12-28T06:43:45.242Z,1.76
2022-12-28T06:46:13.439Z,1.75
2022-12-28T06:48:40.560Z,1.63
2022-12-28T06:51:14.307Z,1.59
2022-12-28T06:53:41.313Z,1.47
2022-12-28T06:56:11.902Z,1.36
2022-12-28T06:58:38.892Z,1.26
2022-12-28T07:01:08.252Z,1.21
2022-12-28T07:03:35.512Z,1.22
2022-12-28T07:06:03.423Z,1.18
2022-12-28T07:08:30.814Z,1.19
2022-12-28T07:11:06.265Z,1.17
2022-12-28T07:13:33.870Z,1.18
2022-12-28T07:16:06.647Z,1.17
2022-12-28T07:18:34.064Z,1.17
2022-12-28T07:21:18.722Z,1.20
2022-12-28T07:23:45.289Z,1.36
2022-12-28T07:26:15.687Z,1.54
2022-12-28T07:28:44.875Z,1.81
2022-12-28T07:31:14.202Z,2.00
2022-12-28T07:33:41.149Z,2.07
2022-12-28T07:36:10.267Z,2.24
2022-12-28T07:38:36.944Z,2.30
2022-12-28T07:41:12.214Z,2.30
2022-12-28T07:43:39.354Z,2.28
2022-12-28T07:46:07.424Z,2.22
2022-12-28T07:48:36.168Z,2.17
2022-12-28T07:51:22.059Z,2.07
2022-12-28T07:53:50.224Z,1.97
2022-12-28T07:56:18.334Z,1.95
2022-12-28T07:58:54.078Z,1.95
2022-12-28T08:01:22.749Z,1.92
2022-12-28T08:03:53.616Z,1.96
2022-12-28T08:06:23.065Z,1.95
2022-12-28T08:08:53.021Z,2.00
2022-12-28T08:11:23.536Z,1.99
2022-12-28T08:13:52.206Z,2.01
2022-12-28T08:16:20.769Z,2.12
2022-12-28T08:18:48.883Z,2.24
2022-12-28T08:21:28.268Z,2.34
2022-12-28T08:23:55.557Z,2.47
2022-12-28T08:26:36.683Z,2.56
2022-12-28T08:29:10.503Z,2.65
2022-12-28T08:31:40.608Z,2.66
2022-12-28T08:34:09.705Z,2.82
2022-12-28T08:36:36.572Z,3.06
2022-12-28T08:39:03.881Z,3.14
2022-12-28T08:41:31.002Z,3.19
2022-12-28T08:43:58.156Z,3.18
2022-12-28T08:46:30.487Z,3.38
2022-12-28T08:48:58.551Z,3.51
2022-12-28T08:51:46.533Z,3.62
2022-12-28T08:54:13.976Z,3.66
2022-12-28T08:56:42.678Z,3.75
2022-12-28T08:59:09.308Z,3.97
2022-12-28T09:01:43.815Z,4.11
2022-12-28T09:04:29.245Z,4.28
2022-12-28T09:06:55.790Z,4.33
2022-12-28T09:09:22.338Z,4.52
2022-12-28T09:11:49.706Z,4.79
2022-12-28T09:14:23.305Z,4.92
2022-12-28T09:16:54.316Z,5.00
2022-12-28T09:19:21.490Z,5.15
2022-12-28T09:21:49.161Z,5.37
2022-12-28T09:24:16.034Z,5.61
2022-12-28T09:26:42.629Z,5.62
2022-12-28T09:29:13.076Z,5.72
2022-12-28T09:31:41.282Z,5.76
2022-12-28T09:36:59.802Z,6.84
2022-12-28T09:39:26.484Z,7.48
2022-12-28T09:42:03.464Z,7.56
2022-12-28T09:44:48.286Z,7.27
2022-12-28T09:47:17.189Z,7.20
2022-12-28T09:50:06.606Z,7.06
2022-12-28T09:52:49.370Z,6.63
2022-12-28T09:55:18.120Z,6.38
2022-12-28T09:57:55.073Z,6.34
2022-12-28T10:00:24.756Z,6.10
2022-12-28T10:03:03.218Z,6.05
2022-12-28T10:05:30.212Z,6.19
2022-12-28T10:07:58.903Z,6.05
2022-12-28T10:10:27.088Z,5.99
2022-12-28T10:12:54.664Z,5.99
2022-12-28T10:15:23.125Z,6.13
2022-12-28T10:17:49.777Z,6.15
2022-12-28T10:20:19.167Z,5.94
2022-12-28T10:22:50.880Z,5.90
2022-12-28T10:25:21.185Z,6.34
2022-12-28T10:27:48.040Z,6.56
2022-12-28T10:30:18.101Z,6.98
2022-12-28T10:33:01.813Z,7.12
2022-12-28T10:35:54.949Z,7.05
2022-12-28T10:38:27.476Z,7.03
2022-12-28T10:41:07.188Z,6.63
2022-12-28T10:43:41.472Z,6.64
2022-12-28T10:46:20.516Z,6.71
2022-12-28T10:48:52.146Z,6.91
2022-12-28T10:51:22.214Z,7.31
2022-12-28T10:53:51.800Z,7.67
2022-12-28T10:56:23.311Z,7.61
2022-12-28T10:58:55.902Z,7.39
2022-12-28T11:01:28.617Z,7.72
2022-12-28T11:03:55.340Z,7.79
2022-12-28T11:06:28.972Z,8.00
2022-12-28T11:09:04.357Z,8.24
2022-12-28T11:11:31.054Z,8.44
2022-12-28T11:14:06.999Z,8.40
2022-12-28T11:16:37.650Z,8.85
2022-12-28T11:19:04.685Z,8.98
2022-12-28T11:21:33.404Z,8.87
2022-12-28T11:24:00.006Z,8.75
2022-12-28T11:26:28.846Z,8.50
2022-12-28T11:28:55.915Z,8.18
2022-12-28T11:31:31.190Z,8.21
2022-12-28T11:34:03.410Z,8.14
2022-12-28T11:36:32.019Z,8.34
2022-12-28T11:38:59.032Z,8.30
2022-12-28T11:41:31.810Z,8.48
2022-12-28T11:44:04.528Z,8.45
2022-12-28T11:46:31.101Z,8.96
2022-12-28T11:49:00.759Z,9.46
2022-12-28T11:51:35.185Z,9.74
2022-12-28T11:54:40.076Z,9.71
2022-12-28T11:57:08.118Z,9.82
2022-12-28T11:59:35.970Z,10.13
2022-12-28T12:02:24.175Z,10.57
2022-12-28T12:04:50.812Z,10.96
2022-12-28T12:07:24.739Z,11.37
2022-12-28T12:10:12.761Z,12.24
2022-12-28T12:12:48.572Z,13.06
2022-12-28T12:15:20.603Z,13.42
2022-12-28T12:17:50.087Z,13.74
2022-12-28T12:20:44.566Z,13.83
2022-12-28T12:23:29.239Z,13.39
2022-12-28T12:26:00.114Z,12.94
2022-12-28T12:28:38.413Z,11.73
2022-12-28T12:31:11.891Z,11.23
2022-12-28T12:33:44.387Z,11.07
2022-12-28T12:36:29.784Z,11.73
2022-12-28T12:39:25.845Z,12.47
2022-12-28T12:42:21.168Z,12.32
2022-12-28T12:45:02.974Z,12.73
2022-12-28T12:47:32.594Z,12.80
2022-12-28T12:50:41.224Z,11.83
2022-12-28T12:53:17.074Z,11.91
2022-12-28T12:55:52.521Z,12.66
2022-12-28T12:58:45.854Z,12.52
2022-12-28T13:01:42.093Z,13.65
2022-12-28T13:04:18.253Z,13.88
2022-12-28T13:06:44.908Z,13.55
2022-12-28T13:09:18.168Z,13.00
2022-12-28T13:11:45.983Z,12.34
2022-12-28T13:14:30.898Z,11.49
2022-12-28T13:16:59.631Z,11.22
2022-12-28T13:19:28.766Z,10.27
2022-12-28T13:21:57.872Z,10.41
2022-12-28T13:24:27.872Z,10.41
2022-12-28T13:26:57.015Z,10.52
2022-12-28T13:29:31.484Z,10.39
2022-12-28T13:31:58.240Z,10.31
2022-12-28T13:34:29.946Z,10.20
2022-12-28T13:37:02.044Z,9.86
2022-12-28T13:39:30.074Z,9.61
2022-12-28T13:42:00.249Z,9.41
2022-12-28T13:44:32.762Z,9.49
2022-12-28T13:47:09.277Z,9.48
2022-12-28T13:49:59.176Z,9.82
2022-12-28T13:53:04.839Z,11.14
2022-12-28T13:55:43.761Z,12.33
2022-12-28T13:58:18.982Z,12.86
2022-12-28T14:00:48.075Z,13.33
2022-12-28T14:03:15.957Z,12.45
2022-12-28T14:05:47.442Z,12.04
2022-12-28T14:08:14.844Z,12.71
2022-12-28T14:10:42.475Z,13.32
2022-12-28T14:13:10.270Z,12.83
2022-12-28T14:15:41.454Z,12.23
2022-12-28T14:18:09.813Z,12.63
2022-12-28T14:20:54.091Z,13.35
2022-12-28T14:23:28.232Z,14.08
2022-12-28T14:25:58.069Z,13.75
2022-12-28T14:28:40.987Z,13.93
2022-12-28T14:31:09.305Z,14.20
2022-12-28T14:33:40.827Z,14.45
2022-12-28T14:36:08.133Z,13.88
2022-12-28T14:38:40.489Z,13.74
2022-12-28T14:41:07.336Z,13.51
2022-12-28T14:43:36.066Z,12.58
2022-12-28T14:46:35.168Z,12.05
2022-12-28T14:49:31.232Z,11.40
2022-12-28T14:52:09.893Z,10.41
2022-12-28T14:54:46.341Z,9.56
2022-12-28T14:57:23.560Z,9.07
2022-12-28T14:59:58.831Z,8.63
2022-12-28T15:02:34.731Z,8.39
2022-12-28T15:05:02.300Z,8.02
2022-12-28T15:07:31.523Z,7.95
2022-12-28T15:09:58.112Z,7.72
2022-12-28T15:12:24.712Z,7.44
2022-12-28T15:14:51.485Z,7.29
2022-12-28T15:17:18.571Z,7.18
2022-12-28T15:19:45.716Z,6.92
2022-12-28T15:22:13.141Z,6.82
2022-12-28T15:24:41.582Z,6.69
2022-12-28T15:27:08.218Z,6.47
2022-12-28T15:32:21.450Z,6.20
2022-12-28T15:34:48.002Z,5.97
2022-12-28T15:37:14.559Z,5.87
2022-12-28T15:39:41.134Z,5.83
2022-12-28T15:42:07.891Z,5.75
2022-12-28T15:44:34.574Z,5.72
2022-12-28T15:47:01.215Z,5.59
2022-12-28T15:49:27.872Z,5.48
2022-12-28T15:51:54.423Z,5.39
2022-12-28T15:54:21.001Z,5.25
2022-12-28T15:56:54.872Z,5.18
2022-12-28T15:59:21.992Z,5.15
2022-12-28T16:01:48.661Z,5.02
2022-12-28T16:04:15.563Z,4.92
2022-12-28T16:06:45.054Z,4.85
2022-12-28T16:09:13.840Z,4.85
2022-12-28T16:11:41.402Z,4.85
2022-12-28T16:14:13.147Z,4.83
2022-12-28T16:16:40.293Z,4.78
2022-12-28T16:19:08.815Z,4.75
2022-12-28T16:21:36.108Z,4.74
2022-12-28T16:24:02.834Z,4.64
2022-12-28T16:26:29.491Z,4.65
2022-12-28T16:28:57.617Z,4.78
2022-12-28T16:31:33.351Z,4.70
2022-12-28T16:34:28.193Z,4.61
2022-12-28T16:36:57.174Z,4.67
2022-12-28T16:39:24.074Z,4.59
2022-12-28T16:41:50.636Z,4.53
2022-12-28T16:44:20.089Z,4.41
2022-12-28T16:46:47.811Z,4.39
2022-12-28T16:49:14.761Z,4.31
2022-12-28T16:51:43.972Z,4.22
2022-12-28T16:54:15.883Z,4.16
2022-12-28T16:56:43.572Z,4.12
2022-12-28T16:59:14.296Z,4.05
2022-12-28T17:01:42.813Z,4.03
2022-12-28T17:04:10.597Z,3.94
2022-12-28T17:06:38.760Z,3.89
2022-12-28T17:09:05.571Z,3.89
2022-12-28T17:11:32.766Z,3.83
2022-12-28T17:14:03.771Z,3.79
2022-12-28T17:16:30.565Z,3.99
2022-12-28T17:18:57.363Z,3.97
2022-12-28T17:21:23.964Z,3.83
2022-12-28T17:23:50.594Z,3.74
2022-12-28T17:26:17.191Z,3.67
2022-12-28T17:28:43.863Z,3.69
2022-12-28T17:31:14.199Z,3.84
2022-12-28T17:33:45.975Z,4.03
2022-12-28T17:36:12.658Z,4.13
2022-12-28T17:38:39.298Z,4.06
2022-12-28T17:41:16.042Z,3.98
2022-12-28T17:43:53.351Z,3.90
2022-12-28T17:46:20.833Z,3.71
2022-12-28T17:48:47.778Z,3.51
2022-12-28T17:51:14.871Z,3.40
2022-12-28T17:53:41.780Z,3.43
2022-12-28T17:56:12.648Z,3.58
2022-12-28T17:58:40.636Z,3.61
2022-12-28T18:01:07.813Z,3.58
2022-12-28T18:03:34.805Z,3.61
2022-12-28T18:06:01.430Z,3.59
2022-12-28T18:08:28.214Z,3.58
2022-12-28T18:10:55.253Z,3.44
2022-12-28T18:13:22.896Z,3.31
2022-12-28T18:15:49.975Z,3.24
2022-12-28T18:18:17.590Z,3.16
2022-12-28T18:20:44.399Z,3.19
2022-12-28T18:23:11.364Z,3.16
2022-12-28T18:25:38.260Z,3.07
2022-12-28T18:28:05.193Z,2.99
2022-12-28T18:30:31.917Z,2.85
2022-12-28T18:32:58.511Z,2.79
2022-12-28T18:35:26.763Z,2.72
2022-12-28T18:37:53.716Z,2.65
2022-12-28T18:40:20.436Z,2.59
2022-12-28T18:42:46.991Z,2.56
2022-12-28T18:45:13.538Z,2.52
2022-12-28T18:47:40.161Z,2.59
2022-12-28T18:50:07.349Z,2.93
2022-12-28T18:52:36.001Z,3.29
2022-12-28T18:55:03.800Z,3.33
2022-12-28T18:57:33.224Z,3.13
2022-12-28T18:59:59.805Z,3.30
2022-12-28T19:02:26.618Z,3.08
2022-12-28T19:04:53.443Z,2.95
2022-12-28T19:07:20.179Z,2.82
2022-12-28T19:10:12.011Z,2.80
2022-12-28T19:12:41.014Z,2.88
2022-12-28T19:15:08.173Z,2.98
2022-12-28T19:17:34.770Z,2.98
2022-12-28T19:20:01.514Z,2.90
2022-12-28T19:22:28.120Z,2.76
2022-12-28T19:24:54.656Z,2.76
2022-12-28T19:27:21.596Z,2.68
2022-12-28T19:29:50.487Z,2.82
2022-12-28T19:32:17.161Z,3.25
2022-12-28T19:34:43.741Z,3.51
2022-12-28T19:37:10.332Z,3.74
2022-12-28T19:39:37.008Z,3.86
2022-12-28T19:42:03.699Z,3.74
2022-12-28T19:44:30.314Z,3.74
2022-12-28T19:46:56.921Z,3.90
2022-12-28T19:49:23.651Z,4.05
2022-12-28T19:51:50.227Z,4.14
2022-12-28T19:54:16.808Z,4.04
2022-12-28T19:56:43.504Z,3.98
2022-12-28T19:59:10.139Z,3.67
2022-12-28T20:01:37.619Z,3.62
2022-12-28T20:04:12.793Z,3.70
2022-12-28T20:06:41.565Z,3.39
2022-12-28T20:09:08.161Z,3.07
2022-12-28T20:11:35.474Z,2.89
2022-12-28T20:14:03.243Z,2.65
2022-12-28T20:16:32.351Z,2.61
2022-12-28T20:19:01.508Z,2.45
2022-12-28T20:21:28.146Z,2.36
2022-12-28T20:23:55.009Z,2.25
2022-12-28T20:26:24.656Z,2.20
2022-12-28T20:28:51.562Z,2.04
2022-12-28T20:31:18.684Z,1.99
2022-12-28T20:33:46.412Z,2.03
2022-12-28T20:36:14.830Z,1.92
2022-12-28T20:38:41.815Z,1.90
2022-12-28T20:41:31.085Z,1.90
2022-12-28T20:43:58.865Z,1.83
2022-12-28T20:46:25.508Z,1.77
2022-12-28T20:48:52.148Z,1.72
2022-12-28T20:51:18.777Z,1.72
2022-12-28T20:53:45.391Z,1.60
2022-12-28T20:56:12.160Z,1.56
2022-12-28T20:58:39.448Z,1.62
2022-12-28T21:01:08.485Z,1.54
2022-12-28T21:03:35.471Z,1.54
2022-12-28T21:06:02.114Z,1.58
2022-12-28T21:08:30.995Z,1.69
2022-12-28T21:10:59.091Z,1.66
2022-12-28T21:13:26.541Z,1.63
2022-12-28T21:15:53.333Z,1.58
2022-12-28T21:18:20.579Z,1.54
2022-12-28T21:20:48.789Z,1.50
2022-12-28T21:23:16.327Z,1.40
2022-12-28T21:25:42.998Z,1.36
2022-12-28T21:28:10.102Z,1.33
2022-12-28T21:30:36.659Z,1.31
2022-12-28T21:33:03.876Z,1.30
2022-12-28T21:35:34.078Z,1.29
2022-12-28T21:38:01.776Z,1.34
2022-12-28T21:40:28.805Z,1.36
2022-12-28T21:42:55.451Z,1.29
2022-12-28T21:45:22.135Z,1.26
2022-12-28T21:47:48.709Z,1.26
2022-12-28T21:50:15.607Z,1.24
2022-12-28T21:52:42.198Z,1.27
2022-12-28T21:55:27.846Z,1.24
2022-12-28T21:57:54.490Z,1.29
2022-12-28T22:00:40.405Z,1.26
2022-12-28T22:03:25.576Z,1.20
2022-12-28T22:06:04.217Z,1.18
2022-12-28T22:08:50.915Z,1.13
2022-12-28T22:11:37.051Z,1.12
2022-12-28T22:14:04.780Z,1.10
2022-12-28T22:16:33.294Z,1.02
2022-12-28T22:19:02.528Z,1.02
2022-12-28T22:21:30.188Z,0.99
2022-12-28T22:23:56.749Z,0.96
2022-12-28T22:26:23.590Z,0.91
2022-12-28T22:28:50.242Z,0.87
2022-12-28T22:31:16.921Z,0.85
2022-12-28T22:33:43.622Z,0.83
2022-12-28T22:36:11.088Z,0.79
2022-12-28T22:38:37.862Z,0.77
2022-12-28T22:41:04.518Z,0.79
2022-12-28T22:43:31.107Z,0.76
2022-12-28T22:46:15.866Z,0.75
2022-12-28T22:48:42.464Z,0.74
2022-12-28T22:51:11.707Z,0.81
2022-12-28T22:53:38.624Z,0.79
2022-12-28T22:56:08.157Z,0.82
2022-12-28T22:58:35.036Z,0.85
2022-12-28T23:01:09.878Z,0.87
2022-12-28T23:03:44.090Z,0.95
2022-12-28T23:06:13.299Z,0.93
2022-12-28T23:08:40.197Z,0.91
2022-12-28T23:11:30.089Z,0.93
2022-12-28T23:14:19.254Z,0.92
2022-12-28T23:16:45.957Z,1.00
2022-12-28T23:19:31.682Z,0.99
2022-12-28T23:22:17.161Z,0.94
2022-12-28T23:25:02.587Z,1.03
2022-12-28T23:27:38.866Z,0.98
2022-12-28T23:30:09.637Z,1.01
2022-12-28T23:32:36.479Z,0.97
2022-12-28T23:35:03.961Z,0.94
2022-12-28T23:37:31.158Z,1.01
2022-12-28T23:39:57.739Z,0.96
2022-12-28T23:42:24.360Z,0.94
2022-12-28T23:44:53.606Z,0.92
2022-12-28T23:47:20.360Z,0.93
2022-12-28T23:49:47.007Z,0.86
2022-12-28T23:52:13.618Z,0.86
2022-12-28T23:54:40.179Z,0.95
2022-12-28T23:57:06.801Z,1.08
2022-12-28T23:59:33.416Z,1.00
